Accueil
METAR-TAF:

METAR-TAF

Aéroports :

Aéroport Andorre

La Seu d'Urgell, Espagne

latitude: 42-20-29N, longitude: 001-24-17E, altitude: 802 m

METAR: absent

Heure: 08:43 (07:43 UTC)

Prévision

Le bulletin a été fait il y a 17 heures et 43 minutes, à 14:00 UTC
Prévision valable du 21 à 15 UTC au 22 à 15 UTC
Vent 6 kt de nord/nord-est
Visibilité 10 km ou plus
Nuages épars à une hauteur de 5500 ft
Probabilité 40% :
Temporairement
du 21 à 15 UTC au 21 à 17 UTC
Vent 12 kt de nord avec des rafales jusqu'à 24 kt

TAF: LESU 211400Z 2115/2215 02006KT 9999 SCT055 TX07/2215Z TNM08/2207Z PROB40 TEMPO 2115/2117 35012G24KT

Observations et prévisions météorologiques de plus de 4000 aéroports (messages METAR et TAF).

Les stations disponibles sont représentées par des disques jaunes et rouges sur la carte.

Passer la souris dessus pour voir le nom de la station.

Cliquer dessus pour voir les observations et prévisions météorologiques.

Pour changer de carte: cliquez sur les boutons verts avec une croix noire pour zoomer, sur le bouton vert avec un tiret pour effectuer un zoom arrière, ou sur les flèches vertes pour les cartes adjacentes.


METAR-TAF: